sensor_id;sensor_type;location;lat;lon;timestamp;P1;durP1;ratioP1;P2;durP2;ratioP2
30872;SDS011;17579;42.690;2.586;2023-11-19T00:00:26;0.50;;;0.50;;
30872;SDS011;17579;42.690;2.586;2023-11-19T00:03:12;0.47;;;0.47;;
30872;SDS011;17579;42.690;2.586;2023-11-19T00:05:38;0.43;;;0.40;;
30872;SDS011;17579;42.690;2.586;2023-11-19T00:08:04;1.30;;;0.60;;
30872;SDS011;17579;42.690;2.586;2023-11-19T00:10:34;0.85;;;0.55;;
30872;SDS011;17579;42.690;2.586;2023-11-19T00:13:15;2.33;;;0.50;;
30872;SDS011;17579;42.690;2.586;2023-11-19T00:15:52;0.60;;;0.60;;
30872;SDS011;17579;42.690;2.586;2023-11-19T00:18:18;1.15;;;0.90;;
30872;SDS011;17579;42.690;2.586;2023-11-19T00:20:53;0.43;;;0.43;;
30872;SDS011;17579;42.690;2.586;2023-11-19T00:23:18;0.80;;;0.60;;
30872;SDS011;17579;42.690;2.586;2023-11-19T00:25:44;0.50;;;0.50;;
30872;SDS011;17579;42.690;2.586;2023-11-19T00:28:31;0.43;;;0.43;;
30872;SDS011;17579;42.690;2.586;2023-11-19T00:31:00;1.30;;;0.52;;
30872;SDS011;17579;42.690;2.586;2023-11-19T00:33:26;0.50;;;0.40;;
30872;SDS011;17579;42.690;2.586;2023-11-19T00:35:52;1.17;;;0.60;;
30872;SDS011;17579;42.690;2.586;2023-11-19T00:38:17;0.40;;;0.40;;
30872;SDS011;17579;42.690;2.586;2023-11-19T00:40:52;0.60;;;0.50;;
30872;SDS011;17579;42.690;2.586;2023-11-19T00:43:27;0.50;;;0.50;;
30872;SDS011;17579;42.690;2.586;2023-11-19T00:45:53;0.80;;;0.60;;
30872;SDS011;17579;42.690;2.586;2023-11-19T00:48:18;0.30;;;0.30;;
30872;SDS011;17579;42.690;2.586;2023-11-19T00:50:44;0.30;;;0.30;;
30872;SDS011;17579;42.690;2.586;2023-11-19T00:53:23;0.60;;;0.60;;
30872;SDS011;17579;42.690;2.586;2023-11-19T00:55:57;2.08;;;0.60;;
30872;SDS011;17579;42.690;2.586;2023-11-19T00:58:25;0.60;;;0.60;;
30872;SDS011;17579;42.690;2.586;2023-11-19T01:01:19;0.38;;;0.38;;
30872;SDS011;17579;42.690;2.586;2023-11-19T01:04:06;0.40;;;0.30;;
30872;SDS011;17579;42.690;2.586;2023-11-19T01:06:31;0.30;;;0.30;;
30872;SDS011;17579;42.690;2.586;2023-11-19T01:08:57;0.20;;;0.20;;
30872;SDS011;17579;42.690;2.586;2023-11-19T01:11:23;0.65;;;0.30;;
30872;SDS011;17579;42.690;2.586;2023-11-19T01:13:53;0.85;;;0.30;;
30872;SDS011;17579;42.690;2.586;2023-11-19T01:16:19;0.20;;;0.20;;
30872;SDS011;17579;42.690;2.586;2023-11-19T01:18:47;0.20;;;0.20;;
30872;SDS011;17579;42.690;2.586;2023-11-19T01:21:14;0.30;;;0.20;;
30872;SDS011;17579;42.690;2.586;2023-11-19T01:23:40;0.30;;;0.28;;
30872;SDS011;17579;42.690;2.586;2023-11-19T01:26:24;0.30;;;0.20;;
30872;SDS011;17579;42.690;2.586;2023-11-19T01:28:52;0.20;;;0.20;;
30872;SDS011;17579;42.690;2.586;2023-11-19T01:31:20;0.20;;;0.20;;
30872;SDS011;17579;42.690;2.586;2023-11-19T01:33:46;0.40;;;0.30;;
30872;SDS011;17579;42.690;2.586;2023-11-19T01:36:13;0.30;;;0.30;;
30872;SDS011;17579;42.690;2.586;2023-11-19T01:38:45;0.45;;;0.30;;
30872;SDS011;17579;42.690;2.586;2023-11-19T01:41:10;0.30;;;0.30;;
30872;SDS011;17579;42.690;2.586;2023-11-19T01:43:37;0.60;;;0.30;;
30872;SDS011;17579;42.690;2.586;2023-11-19T01:46:24;0.63;;;0.50;;
30872;SDS011;17579;42.690;2.586;2023-11-19T01:48:52;0.30;;;0.30;;
30872;SDS011;17579;42.690;2.586;2023-11-19T01:51:30;0.30;;;0.30;;
30872;SDS011;17579;42.690;2.586;2023-11-19T01:54:07;0.40;;;0.40;;
30872;SDS011;17579;42.690;2.586;2023-11-19T01:56:34;0.30;;;0.30;;
30872;SDS011;17579;42.690;2.586;2023-11-19T01:59:08;0.50;;;0.50;;
30872;SDS011;17579;42.690;2.586;2023-11-19T02:01:39;0.25;;;0.25;;
30872;SDS011;17579;42.690;2.586;2023-11-19T02:04:06;0.30;;;0.30;;
30872;SDS011;17579;42.690;2.586;2023-11-19T02:06:39;3.70;;;0.50;;
30872;SDS011;17579;42.690;2.586;2023-11-19T02:09:08;0.40;;;0.40;;
30872;SDS011;17579;42.690;2.586;2023-11-19T02:11:34;1.17;;;0.35;;
30872;SDS011;17579;42.690;2.586;2023-11-19T02:14:00;0.30;;;0.30;;
30872;SDS011;17579;42.690;2.586;2023-11-19T02:16:28;0.32;;;0.32;;
30872;SDS011;17579;42.690;2.586;2023-11-19T02:18:55;0.30;;;0.30;;
30872;SDS011;17579;42.690;2.586;2023-11-19T02:21:35;0.30;;;0.30;;
30872;SDS011;17579;42.690;2.586;2023-11-19T02:24:01;0.30;;;0.30;;
30872;SDS011;17579;42.690;2.586;2023-11-19T02:26:33;0.30;;;0.30;;
30872;SDS011;17579;42.690;2.586;2023-11-19T02:29:09;0.30;;;0.30;;
30872;SDS011;17579;42.690;2.586;2023-11-19T02:31:38;0.38;;;0.38;;
30872;SDS011;17579;42.690;2.586;2023-11-19T02:34:04;0.30;;;0.30;;
30872;SDS011;17579;42.690;2.586;2023-11-19T02:36:30;0.40;;;0.40;;
30872;SDS011;17579;42.690;2.586;2023-11-19T02:38:57;0.73;;;0.30;;
30872;SDS011;17579;42.690;2.586;2023-11-19T02:41:26;0.40;;;0.40;;
30872;SDS011;17579;42.690;2.586;2023-11-19T02:43:57;1.08;;;0.20;;
30872;SDS011;17579;42.690;2.586;2023-11-19T02:46:39;0.17;;;0.17;;
30872;SDS011;17579;42.690;2.586;2023-11-19T02:49:07;0.30;;;0.30;;
30872;SDS011;17579;42.690;2.586;2023-11-19T02:51:33;0.40;;;0.40;;
30872;SDS011;17579;42.690;2.586;2023-11-19T02:54:04;0.52;;;0.30;;
30872;SDS011;17579;42.690;2.586;2023-11-19T02:56:35;1.13;;;0.38;;
30872;SDS011;17579;42.690;2.586;2023-11-19T02:59:10;0.38;;;0.38;;
30872;SDS011;17579;42.690;2.586;2023-11-19T03:01:52;0.40;;;0.20;;
30872;SDS011;17579;42.690;2.586;2023-11-19T03:04:18;1.60;;;0.40;;
30872;SDS011;17579;42.690;2.586;2023-11-19T03:06:45;0.22;;;0.22;;
30872;SDS011;17579;42.690;2.586;2023-11-19T03:09:13;0.40;;;0.40;;
30872;SDS011;17579;42.690;2.586;2023-11-19T03:11:42;0.20;;;0.20;;
30872;SDS011;17579;42.690;2.586;2023-11-19T03:14:17;0.20;;;0.20;;
30872;SDS011;17579;42.690;2.586;2023-11-19T03:16:49;0.30;;;0.30;;
30872;SDS011;17579;42.690;2.586;2023-11-19T03:19:37;0.35;;;0.35;;
30872;SDS011;17579;42.690;2.586;2023-11-19T03:22:06;0.50;;;0.28;;
30872;SDS011;17579;42.690;2.586;2023-11-19T03:24:39;0.60;;;0.60;;
30872;SDS011;17579;42.690;2.586;2023-11-19T03:27:05;0.63;;;0.35;;
30872;SDS011;17579;42.690;2.586;2023-11-19T03:29:36;1.25;;;0.50;;
30872;SDS011;17579;42.690;2.586;2023-11-19T03:32:06;0.40;;;0.30;;
30872;SDS011;17579;42.690;2.586;2023-11-19T03:34:37;0.35;;;0.30;;
30872;SDS011;17579;42.690;2.586;2023-11-19T03:37:03;0.30;;;0.30;;
30872;SDS011;17579;42.690;2.586;2023-11-19T03:39:32;1.65;;;0.30;;
30872;SDS011;17579;42.690;2.586;2023-11-19T03:41:58;0.40;;;0.40;;
30872;SDS011;17579;42.690;2.586;2023-11-19T03:44:23;0.40;;;0.40;;
30872;SDS011;17579;42.690;2.586;2023-11-19T03:46:51;0.30;;;0.30;;
30872;SDS011;17579;42.690;2.586;2023-11-19T03:49:17;0.20;;;0.20;;
30872;SDS011;17579;42.690;2.586;2023-11-19T03:51:42;0.20;;;0.20;;
30872;SDS011;17579;42.690;2.586;2023-11-19T03:54:15;0.20;;;0.20;;
30872;SDS011;17579;42.690;2.586;2023-11-19T03:56:41;0.65;;;0.40;;
30872;SDS011;17579;42.690;2.586;2023-11-19T03:59:45;0.30;;;0.30;;
30872;SDS011;17579;42.690;2.586;2023-11-19T04:01:58;0.30;;;0.30;;
30872;SDS011;17579;42.690;2.586;2023-11-19T04:04:30;0.40;;;0.40;;
30872;SDS011;17579;42.690;2.586;2023-11-19T04:06:59;0.30;;;0.30;;
30872;SDS011;17579;42.690;2.586;2023-11-19T04:09:46;0.50;;;0.22;;
30872;SDS011;17579;42.690;2.586;2023-11-19T04:12:12;0.30;;;0.30;;
30872;SDS011;17579;42.690;2.586;2023-11-19T04:14:56;0.30;;;0.30;;
30872;SDS011;17579;42.690;2.586;2023-11-19T04:17:21;0.30;;;0.30;;
30872;SDS011;17579;42.690;2.586;2023-11-19T04:19:50;0.30;;;0.30;;
30872;SDS011;17579;42.690;2.586;2023-11-19T04:22:18;0.28;;;0.28;;
30872;SDS011;17579;42.690;2.586;2023-11-19T04:24:45;0.35;;;0.32;;
30872;SDS011;17579;42.690;2.586;2023-11-19T04:27:19;0.20;;;0.20;;
30872;SDS011;17579;42.690;2.586;2023-11-19T04:29:45;0.30;;;0.30;;
30872;SDS011;17579;42.690;2.586;2023-11-19T04:32:16;0.20;;;0.20;;
30872;SDS011;17579;42.690;2.586;2023-11-19T04:34:41;0.30;;;0.30;;
30872;SDS011;17579;42.690;2.586;2023-11-19T04:37:07;0.40;;;0.40;;
30872;SDS011;17579;42.690;2.586;2023-11-19T04:39:33;0.20;;;0.20;;
30872;SDS011;17579;42.690;2.586;2023-11-19T04:41:58;0.38;;;0.38;;
30872;SDS011;17579;42.690;2.586;2023-11-19T04:44:24;0.30;;;0.30;;
30872;SDS011;17579;42.690;2.586;2023-11-19T04:47:17;0.30;;;0.30;;
30872;SDS011;17579;42.690;2.586;2023-11-19T04:49:43;0.30;;;0.30;;
30872;SDS011;17579;42.690;2.586;2023-11-19T04:52:32;0.40;;;0.40;;
30872;SDS011;17579;42.690;2.586;2023-11-19T04:54:58;0.30;;;0.30;;
30872;SDS011;17579;42.690;2.586;2023-11-19T04:57:43;0.30;;;0.30;;
30872;SDS011;17579;42.690;2.586;2023-11-19T05:00:09;0.40;;;0.30;;
30872;SDS011;17579;42.690;2.586;2023-11-19T05:02:42;0.20;;;0.20;;
30872;SDS011;17579;42.690;2.586;2023-11-19T05:05:08;0.63;;;0.40;;
30872;SDS011;17579;42.690;2.586;2023-11-19T05:07:36;0.28;;;0.28;;
30872;SDS011;17579;42.690;2.586;2023-11-19T05:10:05;0.10;;;0.10;;
30872;SDS011;17579;42.690;2.586;2023-11-19T05:12:35;0.45;;;0.28;;
30872;SDS011;17579;42.690;2.586;2023-11-19T05:15:03;0.73;;;0.30;;
30872;SDS011;17579;42.690;2.586;2023-11-19T05:17:41;0.30;;;0.30;;
30872;SDS011;17579;42.690;2.586;2023-11-19T05:20:15;0.40;;;0.40;;
30872;SDS011;17579;42.690;2.586;2023-11-19T05:22:47;0.50;;;0.50;;
30872;SDS011;17579;42.690;2.586;2023-11-19T05:25:17;0.40;;;0.40;;
30872;SDS011;17579;42.690;2.586;2023-11-19T05:27:45;0.30;;;0.30;;
30872;SDS011;17579;42.690;2.586;2023-11-19T05:30:33;0.20;;;0.20;;
30872;SDS011;17579;42.690;2.586;2023-11-19T05:33:02;0.40;;;0.40;;
30872;SDS011;17579;42.690;2.586;2023-11-19T05:35:36;0.20;;;0.20;;
30872;SDS011;17579;42.690;2.586;2023-11-19T05:38:02;0.30;;;0.30;;
30872;SDS011;17579;42.690;2.586;2023-11-19T05:40:27;0.45;;;0.45;;
30872;SDS011;17579;42.690;2.586;2023-11-19T05:42:53;0.40;;;0.40;;
30872;SDS011;17579;42.690;2.586;2023-11-19T05:45:24;0.32;;;0.32;;
30872;SDS011;17579;42.690;2.586;2023-11-19T05:47:57;0.20;;;0.20;;
30872;SDS011;17579;42.690;2.586;2023-11-19T05:50:33;0.40;;;0.40;;
30872;SDS011;17579;42.690;2.586;2023-11-19T05:52:59;0.40;;;0.40;;
30872;SDS011;17579;42.690;2.586;2023-11-19T05:55:34;0.28;;;0.28;;
30872;SDS011;17579;42.690;2.586;2023-11-19T05:58:00;0.28;;;0.28;;
30872;SDS011;17579;42.690;2.586;2023-11-19T06:00:28;0.28;;;0.28;;
30872;SDS011;17579;42.690;2.586;2023-11-19T06:03:02;0.35;;;0.30;;
30872;SDS011;17579;42.690;2.586;2023-11-19T06:05:29;0.40;;;0.40;;
30872;SDS011;17579;42.690;2.586;2023-11-19T06:07:58;0.30;;;0.30;;
30872;SDS011;17579;42.690;2.586;2023-11-19T06:10:26;0.30;;;0.30;;
30872;SDS011;17579;42.690;2.586;2023-11-19T06:13:04;0.30;;;0.30;;
30872;SDS011;17579;42.690;2.586;2023-11-19T06:15:30;0.30;;;0.30;;
30872;SDS011;17579;42.690;2.586;2023-11-19T06:18:06;0.40;;;0.40;;
30872;SDS011;17579;42.690;2.586;2023-11-19T06:20:41;0.40;;;0.40;;
30872;SDS011;17579;42.690;2.586;2023-11-19T06:23:07;0.30;;;0.30;;
30872;SDS011;17579;42.690;2.586;2023-11-19T06:25:45;0.20;;;0.20;;
30872;SDS011;17579;42.690;2.586;2023-11-19T06:28:11;0.40;;;0.40;;
30872;SDS011;17579;42.690;2.586;2023-11-19T06:30:45;0.40;;;0.40;;
30872;SDS011;17579;42.690;2.586;2023-11-19T06:33:13;0.32;;;0.32;;
30872;SDS011;17579;42.690;2.586;2023-11-19T06:35:42;0.28;;;0.25;;
30872;SDS011;17579;42.690;2.586;2023-11-19T06:38:08;0.38;;;0.38;;
30872;SDS011;17579;42.690;2.586;2023-11-19T06:40:37;0.40;;;0.40;;
30872;SDS011;17579;42.690;2.586;2023-11-19T06:43:06;0.30;;;0.30;;
30872;SDS011;17579;42.690;2.586;2023-11-19T06:45:34;0.30;;;0.30;;
30872;SDS011;17579;42.690;2.586;2023-11-19T06:48:01;0.30;;;0.30;;
30872;SDS011;17579;42.690;2.586;2023-11-19T06:50:30;0.30;;;0.30;;
30872;SDS011;17579;42.690;2.586;2023-11-19T06:52:56;0.30;;;0.30;;
30872;SDS011;17579;42.690;2.586;2023-11-19T06:55:31;0.32;;;0.32;;
30872;SDS011;17579;42.690;2.586;2023-11-19T06:58:17;0.30;;;0.30;;
30872;SDS011;17579;42.690;2.586;2023-11-19T07:00:46;0.30;;;0.30;;
30872;SDS011;17579;42.690;2.586;2023-11-19T07:03:13;2.83;;;0.45;;
30872;SDS011;17579;42.690;2.586;2023-11-19T07:05:39;0.20;;;0.20;;
30872;SDS011;17579;42.690;2.586;2023-11-19T07:08:08;0.30;;;0.30;;
30872;SDS011;17579;42.690;2.586;2023-11-19T07:10:34;3.55;;;0.40;;
30872;SDS011;17579;42.690;2.586;2023-11-19T07:13:02;0.40;;;0.40;;
30872;SDS011;17579;42.690;2.586;2023-11-19T07:15:31;0.30;;;0.30;;
30872;SDS011;17579;42.690;2.586;2023-11-19T07:18:00;0.40;;;0.40;;
30872;SDS011;17579;42.690;2.586;2023-11-19T07:20:29;0.47;;;0.20;;
30872;SDS011;17579;42.690;2.586;2023-11-19T07:23:06;0.38;;;0.20;;
30872;SDS011;17579;42.690;2.586;2023-11-19T07:25:42;0.30;;;0.30;;
30872;SDS011;17579;42.690;2.586;2023-11-19T07:28:12;0.52;;;0.30;;
30872;SDS011;17579;42.690;2.586;2023-11-19T07:30:54;0.40;;;0.40;;
30872;SDS011;17579;42.690;2.586;2023-11-19T07:33:25;0.32;;;0.32;;
30872;SDS011;17579;42.690;2.586;2023-11-19T07:35:50;0.40;;;0.40;;
30872;SDS011;17579;42.690;2.586;2023-11-19T07:38:19;0.38;;;0.38;;
30872;SDS011;17579;42.690;2.586;2023-11-19T07:40:47;0.20;;;0.20;;
30872;SDS011;17579;42.690;2.586;2023-11-19T07:43:13;0.30;;;0.30;;
30872;SDS011;17579;42.690;2.586;2023-11-19T07:48:25;0.40;;;0.40;;
30872;SDS011;17579;42.690;2.586;2023-11-19T07:50:53;1.65;;;0.40;;
30872;SDS011;17579;42.690;2.586;2023-11-19T07:53:19;0.20;;;0.20;;
30872;SDS011;17579;42.690;2.586;2023-11-19T07:55:54;0.30;;;0.30;;
30872;SDS011;17579;42.690;2.586;2023-11-19T07:58:22;0.28;;;0.28;;
30872;SDS011;17579;42.690;2.586;2023-11-19T08:00:47;0.65;;;0.47;;
30872;SDS011;17579;42.690;2.586;2023-11-19T08:05:59;0.30;;;0.30;;
30872;SDS011;17579;42.690;2.586;2023-11-19T08:08:29;0.40;;;0.40;;
30872;SDS011;17579;42.690;2.586;2023-11-19T08:10:55;0.20;;;0.20;;
30872;SDS011;17579;42.690;2.586;2023-11-19T08:13:23;0.38;;;0.38;;
30872;SDS011;17579;42.690;2.586;2023-11-19T08:15:49;0.43;;;0.40;;
30872;SDS011;17579;42.690;2.586;2023-11-19T08:18:38;0.15;;;0.15;;
30872;SDS011;17579;42.690;2.586;2023-11-19T08:21:14;0.40;;;0.40;;
30872;SDS011;17579;42.690;2.586;2023-11-19T08:24:15;0.28;;;0.28;;
30872;SDS011;17579;42.690;2.586;2023-11-19T08:26:41;0.43;;;0.43;;
30872;SDS011;17579;42.690;2.586;2023-11-19T08:29:07;0.63;;;0.52;;
30872;SDS011;17579;42.690;2.586;2023-11-19T08:31:34;0.30;;;0.30;;
30872;SDS011;17579;42.690;2.586;2023-11-19T08:34:20;0.22;;;0.22;;
30872;SDS011;17579;42.690;2.586;2023-11-19T08:39:16;0.38;;;0.38;;
30872;SDS011;17579;42.690;2.586;2023-11-19T08:41:57;0.90;;;0.30;;
30872;SDS011;17579;42.690;2.586;2023-11-19T08:47:15;0.65;;;0.30;;
30872;SDS011;17579;42.690;2.586;2023-11-19T08:49:43;0.25;;;0.25;;
30872;SDS011;17579;42.690;2.586;2023-11-19T08:52:14;0.20;;;0.20;;
30872;SDS011;17579;42.690;2.586;2023-11-19T08:54:42;0.30;;;0.30;;
30872;SDS011;17579;42.690;2.586;2023-11-19T08:57:11;0.40;;;0.40;;
30872;SDS011;17579;42.690;2.586;2023-11-19T08:59:39;0.30;;;0.20;;
30872;SDS011;17579;42.690;2.586;2023-11-19T09:02:05;1.10;;;0.40;;
30872;SDS011;17579;42.690;2.586;2023-11-19T09:04:37;0.43;;;0.30;;
30872;SDS011;17579;42.690;2.586;2023-11-19T09:07:06;0.30;;;0.30;;
30872;SDS011;17579;42.690;2.586;2023-11-19T09:09:34;0.30;;;0.30;;
30872;SDS011;17579;42.690;2.586;2023-11-19T09:12:05;0.38;;;0.38;;
30872;SDS011;17579;42.690;2.586;2023-11-19T09:14:40;0.40;;;0.40;;
30872;SDS011;17579;42.690;2.586;2023-11-19T09:17:07;0.30;;;0.30;;
30872;SDS011;17579;42.690;2.586;2023-11-19T09:19:43;0.35;;;0.35;;
30872;SDS011;17579;42.690;2.586;2023-11-19T09:22:11;0.57;;;0.50;;
30872;SDS011;17579;42.690;2.586;2023-11-19T09:24:42;0.30;;;0.30;;
30872;SDS011;17579;42.690;2.586;2023-11-19T09:27:10;0.57;;;0.50;;
30872;SDS011;17579;42.690;2.586;2023-11-19T09:29:46;0.32;;;0.32;;
30872;SDS011;17579;42.690;2.586;2023-11-19T09:32:20;0.52;;;0.50;;
30872;SDS011;17579;42.690;2.586;2023-11-19T09:35:05;0.35;;;0.35;;
30872;SDS011;17579;42.690;2.586;2023-11-19T09:37:32;0.70;;;0.52;;
30872;SDS011;17579;42.690;2.586;2023-11-19T09:40:03;0.40;;;0.40;;
30872;SDS011;17579;42.690;2.586;2023-11-19T09:42:32;0.40;;;0.40;;
30872;SDS011;17579;42.690;2.586;2023-11-19T09:45:12;0.30;;;0.30;;
30872;SDS011;17579;42.690;2.586;2023-11-19T09:47:42;0.40;;;0.40;;
30872;SDS011;17579;42.690;2.586;2023-11-19T09:50:15;0.40;;;0.40;;
30872;SDS011;17579;42.690;2.586;2023-11-19T09:53:06;0.88;;;0.30;;
30872;SDS011;17579;42.690;2.586;2023-11-19T09:55:31;0.30;;;0.30;;
30872;SDS011;17579;42.690;2.586;2023-11-19T09:57:59;0.40;;;0.40;;
30872;SDS011;17579;42.690;2.586;2023-11-19T10:00:27;0.40;;;0.40;;
30872;SDS011;17579;42.690;2.586;2023-11-19T10:02:52;0.50;;;0.50;;
30872;SDS011;17579;42.690;2.586;2023-11-19T10:05:23;0.60;;;0.60;;
30872;SDS011;17579;42.690;2.586;2023-11-19T10:07:55;0.43;;;0.43;;
30872;SDS011;17579;42.690;2.586;2023-11-19T10:10:24;0.38;;;0.38;;
30872;SDS011;17579;42.690;2.586;2023-11-19T10:12:52;0.40;;;0.40;;
30872;SDS011;17579;42.690;2.586;2023-11-19T10:17:58;0.40;;;0.40;;
30872;SDS011;17579;42.690;2.586;2023-11-19T10:20:26;1.00;;;0.55;;
30872;SDS011;17579;42.690;2.586;2023-11-19T10:23:02;0.47;;;0.43;;
30872;SDS011;17579;42.690;2.586;2023-11-19T10:25:29;0.40;;;0.40;;
30872;SDS011;17579;42.690;2.586;2023-11-19T10:27:59;0.30;;;0.30;;
30872;SDS011;17579;42.690;2.586;2023-11-19T10:30:31;0.47;;;0.40;;
30872;SDS011;17579;42.690;2.586;2023-11-19T10:33:12;0.82;;;0.40;;
30872;SDS011;17579;42.690;2.586;2023-11-19T10:36:19;1.00;;;0.70;;
30872;SDS011;17579;42.690;2.586;2023-11-19T10:41:37;0.43;;;0.43;;
30872;SDS011;17579;42.690;2.586;2023-11-19T10:44:30;0.50;;;0.50;;
30872;SDS011;17579;42.690;2.586;2023-11-19T10:47:05;0.50;;;0.40;;
30872;SDS011;17579;42.690;2.586;2023-11-19T10:49:33;0.60;;;0.50;;
30872;SDS011;17579;42.690;2.586;2023-11-19T10:52:00;1.40;;;0.60;;
30872;SDS011;17579;42.690;2.586;2023-11-19T10:54:28;0.60;;;0.60;;
30872;SDS011;17579;42.690;2.586;2023-11-19T10:56:58;0.50;;;0.50;;
30872;SDS011;17579;42.690;2.586;2023-11-19T10:59:33;0.80;;;0.80;;
30872;SDS011;17579;42.690;2.586;2023-11-19T11:02:08;0.47;;;0.47;;
30872;SDS011;17579;42.690;2.586;2023-11-19T11:04:46;0.50;;;0.50;;
30872;SDS011;17579;42.690;2.586;2023-11-19T11:07:14;0.70;;;0.70;;
30872;SDS011;17579;42.690;2.586;2023-11-19T11:09:43;0.63;;;0.55;;
30872;SDS011;17579;42.690;2.586;2023-11-19T11:12:36;1.85;;;0.70;;
30872;SDS011;17579;42.690;2.586;2023-11-19T11:15:04;1.15;;;0.60;;
30872;SDS011;17579;42.690;2.586;2023-11-19T11:17:37;0.60;;;0.60;;
30872;SDS011;17579;42.690;2.586;2023-11-19T11:20:05;1.17;;;0.63;;
30872;SDS011;17579;42.690;2.586;2023-11-19T11:22:42;0.77;;;0.60;;
30872;SDS011;17579;42.690;2.586;2023-11-19T11:28:15;0.82;;;0.70;;
30872;SDS011;17579;42.690;2.586;2023-11-19T11:30:54;3.10;;;0.73;;
30872;SDS011;17579;42.690;2.586;2023-11-19T11:33:59;0.57;;;0.57;;
30872;SDS011;17579;42.690;2.586;2023-11-19T11:36:51;1.20;;;0.77;;
30872;SDS011;17579;42.690;2.586;2023-11-19T11:39:32;0.98;;;0.82;;
30872;SDS011;17579;42.690;2.586;2023-11-19T11:50:06;0.45;;;0.45;;
30872;SDS011;17579;42.690;2.586;2023-11-19T11:57:55;0.50;;;0.50;;
30872;SDS011;17579;42.690;2.586;2023-11-19T12:03:04;1.25;;;0.70;;
30872;SDS011;17579;42.690;2.586;2023-11-19T12:05:38;0.50;;;0.50;;
30872;SDS011;17579;42.690;2.586;2023-11-19T12:08:10;0.57;;;0.57;;
30872;SDS011;17579;42.690;2.586;2023-11-19T12:10:48;0.55;;;0.55;;
30872;SDS011;17579;42.690;2.586;2023-11-19T12:13:55;0.73;;;0.73;;
30872;SDS011;17579;42.690;2.586;2023-11-19T12:16:23;0.57;;;0.57;;
30872;SDS011;17579;42.690;2.586;2023-11-19T12:18:54;1.10;;;0.70;;
30872;SDS011;17579;42.690;2.586;2023-11-19T12:23:52;0.55;;;0.55;;
30872;SDS011;17579;42.690;2.586;2023-11-19T12:31:54;0.98;;;0.52;;
30872;SDS011;17579;42.690;2.586;2023-11-19T12:34:22;1.73;;;0.60;;
30872;SDS011;17579;42.690;2.586;2023-11-19T12:36:58;1.05;;;0.50;;
30872;SDS011;17579;42.690;2.586;2023-11-19T12:39:34;0.85;;;0.70;;
30872;SDS011;17579;42.690;2.586;2023-11-19T12:42:02;0.60;;;0.60;;
30872;SDS011;17579;42.690;2.586;2023-11-19T12:44:30;0.93;;;0.75;;
30872;SDS011;17579;42.690;2.586;2023-11-19T12:49:49;0.70;;;0.70;;
30872;SDS011;17579;42.690;2.586;2023-11-19T12:52:21;0.60;;;0.60;;
30872;SDS011;17579;42.690;2.586;2023-11-19T12:54:48;0.50;;;0.50;;
30872;SDS011;17579;42.690;2.586;2023-11-19T13:00:03;0.63;;;0.63;;
30872;SDS011;17579;42.690;2.586;2023-11-19T13:05:19;0.50;;;0.50;;
30872;SDS011;17579;42.690;2.586;2023-11-19T13:07:57;0.63;;;0.60;;
30872;SDS011;17579;42.690;2.586;2023-11-19T13:13:25;0.60;;;0.60;;
30872;SDS011;17579;42.690;2.586;2023-11-19T13:15:51;1.05;;;0.50;;
30872;SDS011;17579;42.690;2.586;2023-11-19T13:18:17;0.60;;;0.60;;
30872;SDS011;17579;42.690;2.586;2023-11-19T13:20:45;0.65;;;0.57;;
30872;SDS011;17579;42.690;2.586;2023-11-19T13:23:11;0.90;;;0.80;;
30872;SDS011;17579;42.690;2.586;2023-11-19T13:25:36;0.70;;;0.70;;
30872;SDS011;17579;42.690;2.586;2023-11-19T13:28:05;0.50;;;0.50;;
30872;SDS011;17579;42.690;2.586;2023-11-19T13:30:56;0.60;;;0.60;;
30872;SDS011;17579;42.690;2.586;2023-11-19T13:33:23;0.60;;;0.60;;
30872;SDS011;17579;42.690;2.586;2023-11-19T13:35:51;0.93;;;0.60;;
30872;SDS011;17579;42.690;2.586;2023-11-19T13:38:20;0.60;;;0.60;;
30872;SDS011;17579;42.690;2.586;2023-11-19T13:40:51;0.80;;;0.80;;
30872;SDS011;17579;42.690;2.586;2023-11-19T13:43:36;0.70;;;0.70;;
30872;SDS011;17579;42.690;2.586;2023-11-19T13:46:31;3.30;;;1.08;;
30872;SDS011;17579;42.690;2.586;2023-11-19T13:49:03;0.90;;;0.85;;
30872;SDS011;17579;42.690;2.586;2023-11-19T13:51:28;0.85;;;0.80;;
30872;SDS011;17579;42.690;2.586;2023-11-19T13:54:17;0.70;;;0.70;;
30872;SDS011;17579;42.690;2.586;2023-11-19T13:56:44;1.40;;;1.05;;
30872;SDS011;17579;42.690;2.586;2023-11-19T13:59:15;1.15;;;1.05;;
30872;SDS011;17579;42.690;2.586;2023-11-19T14:01:41;1.52;;;0.90;;
30872;SDS011;17579;42.690;2.586;2023-11-19T14:04:14;0.90;;;0.90;;
30872;SDS011;17579;42.690;2.586;2023-11-19T14:06:45;1.20;;;1.00;;
30872;SDS011;17579;42.690;2.586;2023-11-19T14:09:13;1.08;;;0.80;;
30872;SDS011;17579;42.690;2.586;2023-11-19T14:11:39;1.70;;;1.02;;
30872;SDS011;17579;42.690;2.586;2023-11-19T14:14:05;1.00;;;0.90;;
30872;SDS011;17579;42.690;2.586;2023-11-19T14:16:34;1.27;;;0.98;;
30872;SDS011;17579;42.690;2.586;2023-11-19T14:19:09;0.80;;;0.80;;
30872;SDS011;17579;42.690;2.586;2023-11-19T14:21:38;1.00;;;0.98;;
30872;SDS011;17579;42.690;2.586;2023-11-19T14:24:04;0.80;;;0.80;;
30872;SDS011;17579;42.690;2.586;2023-11-19T14:26:30;0.98;;;0.98;;
30872;SDS011;17579;42.690;2.586;2023-11-19T14:29:24;1.15;;;1.05;;
30872;SDS011;17579;42.690;2.586;2023-11-19T14:31:55;0.80;;;0.80;;
30872;SDS011;17579;42.690;2.586;2023-11-19T14:34:21;0.70;;;0.70;;
30872;SDS011;17579;42.690;2.586;2023-11-19T14:36:56;1.00;;;0.90;;
30872;SDS011;17579;42.690;2.586;2023-11-19T14:39:25;1.30;;;0.90;;
30872;SDS011;17579;42.690;2.586;2023-11-19T14:41:57;1.25;;;1.00;;
30872;SDS011;17579;42.690;2.586;2023-11-19T14:44:26;1.08;;;0.80;;
30872;SDS011;17579;42.690;2.586;2023-11-19T14:47:21;0.70;;;0.70;;
30872;SDS011;17579;42.690;2.586;2023-11-19T14:49:59;1.23;;;1.00;;
30872;SDS011;17579;42.690;2.586;2023-11-19T14:52:27;0.90;;;0.90;;
30872;SDS011;17579;42.690;2.586;2023-11-19T14:57:51;1.65;;;1.27;;
30872;SDS011;17579;42.690;2.586;2023-11-19T15:00:19;1.20;;;1.10;;
30872;SDS011;17579;42.690;2.586;2023-11-19T15:02:48;0.80;;;0.80;;
30872;SDS011;17579;42.690;2.586;2023-11-19T15:05:17;1.85;;;1.02;;
30872;SDS011;17579;42.690;2.586;2023-11-19T15:07:42;0.85;;;0.80;;
30872;SDS011;17579;42.690;2.586;2023-11-19T15:10:11;1.08;;;0.82;;
30872;SDS011;17579;42.690;2.586;2023-11-19T15:12:39;1.42;;;0.80;;
30872;SDS011;17579;42.690;2.586;2023-11-19T15:15:06;0.80;;;0.80;;
30872;SDS011;17579;42.690;2.586;2023-11-19T15:17:33;1.33;;;0.70;;
30872;SDS011;17579;42.690;2.586;2023-11-19T15:20:05;1.98;;;1.00;;
30872;SDS011;17579;42.690;2.586;2023-11-19T15:25:20;1.92;;;1.00;;
30872;SDS011;17579;42.690;2.586;2023-11-19T15:27:52;0.90;;;0.90;;
30872;SDS011;17579;42.690;2.586;2023-11-19T15:30:20;0.85;;;0.70;;
30872;SDS011;17579;42.690;2.586;2023-11-19T15:32:46;0.80;;;0.80;;
30872;SDS011;17579;42.690;2.586;2023-11-19T15:35:17;0.80;;;0.80;;
30872;SDS011;17579;42.690;2.586;2023-11-19T15:37:45;1.38;;;0.82;;
30872;SDS011;17579;42.690;2.586;2023-11-19T15:40:13;1.85;;;0.90;;
30872;SDS011;17579;42.690;2.586;2023-11-19T15:42:44;0.60;;;0.60;;
30872;SDS011;17579;42.690;2.586;2023-11-19T15:45:22;0.80;;;0.80;;
30872;SDS011;17579;42.690;2.586;2023-11-19T15:47:49;0.70;;;0.70;;
30872;SDS011;17579;42.690;2.586;2023-11-19T15:50:17;1.23;;;0.90;;
30872;SDS011;17579;42.690;2.586;2023-11-19T15:53:05;1.20;;;1.10;;
30872;SDS011;17579;42.690;2.586;2023-11-19T15:55:31;0.85;;;0.82;;
30872;SDS011;17579;42.690;2.586;2023-11-19T15:57:59;1.05;;;0.80;;
30872;SDS011;17579;42.690;2.586;2023-11-19T16:00:31;1.10;;;1.00;;
30872;SDS011;17579;42.690;2.586;2023-11-19T16:03:02;1.38;;;0.80;;
30872;SDS011;17579;42.690;2.586;2023-11-19T16:05:38;1.08;;;0.98;;
30872;SDS011;17579;42.690;2.586;2023-11-19T16:08:06;1.13;;;0.80;;
30872;SDS011;17579;42.690;2.586;2023-11-19T16:10:34;1.10;;;0.98;;
30872;SDS011;17579;42.690;2.586;2023-11-19T16:13:04;0.80;;;0.80;;